sensor_id;sensor_type;location;lat;lon;timestamp;P1;durP1;ratioP1;P2;durP2;ratioP2
9052;SDS011;4561;47.450;7.516;2023-04-24T00:01:08;1.33;;;0.70;;
9052;SDS011;4561;47.450;7.516;2023-04-24T00:04:29;0.70;;;0.60;;
9052;SDS011;4561;47.450;7.516;2023-04-24T00:07:50;2.27;;;0.67;;
9052;SDS011;4561;47.450;7.516;2023-04-24T00:11:16;0.60;;;0.43;;
9052;SDS011;4561;47.450;7.516;2023-04-24T00:14:36;0.83;;;0.60;;
9052;SDS011;4561;47.450;7.516;2023-04-24T00:17:56;2.20;;;0.40;;
9052;SDS011;4561;47.450;7.516;2023-04-24T00:21:17;1.37;;;0.60;;
9052;SDS011;4561;47.450;7.516;2023-04-24T00:24:38;0.77;;;0.50;;
9052;SDS011;4561;47.450;7.516;2023-04-24T00:27:58;1.77;;;0.67;;
9052;SDS011;4561;47.450;7.516;2023-04-24T00:31:18;1.27;;;0.70;;
9052;SDS011;4561;47.450;7.516;2023-04-24T00:34:39;1.53;;;0.70;;
9052;SDS011;4561;47.450;7.516;2023-04-24T00:37:59;0.93;;;0.63;;
9052;SDS011;4561;47.450;7.516;2023-04-24T00:41:20;1.50;;;0.40;;
9052;SDS011;4561;47.450;7.516;2023-04-24T00:44:41;1.33;;;0.60;;
9052;SDS011;4561;47.450;7.516;2023-04-24T00:48:02;2.03;;;0.50;;
9052;SDS011;4561;47.450;7.516;2023-04-24T00:51:22;0.97;;;0.60;;
9052;SDS011;4561;47.450;7.516;2023-04-24T00:54:44;1.30;;;0.63;;
9052;SDS011;4561;47.450;7.516;2023-04-24T00:58:05;1.17;;;0.50;;
9052;SDS011;4561;47.450;7.516;2023-04-24T01:01:25;1.20;;;0.70;;
9052;SDS011;4561;47.450;7.516;2023-04-24T01:04:46;2.00;;;0.50;;
9052;SDS011;4561;47.450;7.516;2023-04-24T01:08:06;3.10;;;0.70;;
9052;SDS011;4561;47.450;7.516;2023-04-24T01:11:26;0.40;;;0.40;;
9052;SDS011;4561;47.450;7.516;2023-04-24T01:14:47;2.17;;;0.63;;
9052;SDS011;4561;47.450;7.516;2023-04-24T01:18:07;0.47;;;0.47;;
9052;SDS011;4561;47.450;7.516;2023-04-24T01:21:28;0.80;;;0.60;;
9052;SDS011;4561;47.450;7.516;2023-04-24T01:24:49;1.40;;;0.60;;
9052;SDS011;4561;47.450;7.516;2023-04-24T01:28:10;0.80;;;0.60;;
9052;SDS011;4561;47.450;7.516;2023-04-24T01:31:30;1.33;;;0.67;;
9052;SDS011;4561;47.450;7.516;2023-04-24T01:34:51;1.37;;;0.70;;
9052;SDS011;4561;47.450;7.516;2023-04-24T01:38:11;1.00;;;0.53;;
9052;SDS011;4561;47.450;7.516;2023-04-24T01:41:32;3.90;;;0.70;;
9052;SDS011;4561;47.450;7.516;2023-04-24T01:44:55;1.17;;;0.60;;
9052;SDS011;4561;47.450;7.516;2023-04-24T01:48:16;2.50;;;0.70;;
9052;SDS011;4561;47.450;7.516;2023-04-24T01:51:36;2.10;;;0.60;;
9052;SDS011;4561;47.450;7.516;2023-04-24T01:54:59;1.90;;;0.90;;
9052;SDS011;4561;47.450;7.516;2023-04-24T01:58:19;3.00;;;0.50;;
9052;SDS011;4561;47.450;7.516;2023-04-24T02:01:40;1.03;;;0.70;;
9052;SDS011;4561;47.450;7.516;2023-04-24T02:05:00;2.07;;;0.70;;
9052;SDS011;4561;47.450;7.516;2023-04-24T02:08:21;1.60;;;0.60;;
9052;SDS011;4561;47.450;7.516;2023-04-24T02:11:41;1.50;;;0.67;;
9052;SDS011;4561;47.450;7.516;2023-04-24T02:15:02;2.97;;;0.83;;
9052;SDS011;4561;47.450;7.516;2023-04-24T02:18:22;1.90;;;0.83;;
9052;SDS011;4561;47.450;7.516;2023-04-24T02:21:43;0.87;;;0.70;;
9052;SDS011;4561;47.450;7.516;2023-04-24T02:25:06;3.23;;;0.70;;
9052;SDS011;4561;47.450;7.516;2023-04-24T02:28:29;0.67;;;0.67;;
9052;SDS011;4561;47.450;7.516;2023-04-24T02:31:50;1.43;;;0.60;;
9052;SDS011;4561;47.450;7.516;2023-04-24T02:35:10;1.27;;;0.70;;
9052;SDS011;4561;47.450;7.516;2023-04-24T02:38:31;2.50;;;0.70;;
9052;SDS011;4561;47.450;7.516;2023-04-24T02:41:51;1.90;;;0.80;;
9052;SDS011;4561;47.450;7.516;2023-04-24T02:45:11;0.93;;;0.57;;
9052;SDS011;4561;47.450;7.516;2023-04-24T02:48:32;1.23;;;0.50;;
9052;SDS011;4561;47.450;7.516;2023-04-24T02:51:52;2.17;;;0.60;;
9052;SDS011;4561;47.450;7.516;2023-04-24T02:55:13;1.20;;;0.60;;
9052;SDS011;4561;47.450;7.516;2023-04-24T02:58:33;2.00;;;0.80;;
9052;SDS011;4561;47.450;7.516;2023-04-24T03:01:55;1.83;;;0.80;;
9052;SDS011;4561;47.450;7.516;2023-04-24T03:05:15;0.87;;;0.67;;
9052;SDS011;4561;47.450;7.516;2023-04-24T03:08:38;0.87;;;0.50;;
9052;SDS011;4561;47.450;7.516;2023-04-24T03:11:58;0.83;;;0.57;;
9052;SDS011;4561;47.450;7.516;2023-04-24T03:15:21;2.30;;;0.80;;
9052;SDS011;4561;47.450;7.516;2023-04-24T03:18:42;1.17;;;0.80;;
9052;SDS011;4561;47.450;7.516;2023-04-24T03:22:02;1.03;;;0.83;;
9052;SDS011;4561;47.450;7.516;2023-04-24T03:25:23;0.90;;;0.67;;
9052;SDS011;4561;47.450;7.516;2023-04-24T03:28:43;0.80;;;0.80;;
9052;SDS011;4561;47.450;7.516;2023-04-24T03:32:03;0.93;;;0.70;;
9052;SDS011;4561;47.450;7.516;2023-04-24T03:35:26;1.87;;;0.77;;
9052;SDS011;4561;47.450;7.516;2023-04-24T03:38:46;2.50;;;0.80;;
9052;SDS011;4561;47.450;7.516;2023-04-24T03:42:07;1.70;;;0.90;;
9052;SDS011;4561;47.450;7.516;2023-04-24T03:45:28;0.90;;;0.80;;
9052;SDS011;4561;47.450;7.516;2023-04-24T03:48:48;1.73;;;0.80;;
9052;SDS011;4561;47.450;7.516;2023-04-24T03:52:09;1.27;;;1.10;;
9052;SDS011;4561;47.450;7.516;2023-04-24T03:55:29;1.40;;;1.13;;
9052;SDS011;4561;47.450;7.516;2023-04-24T03:58:50;1.87;;;1.43;;
9052;SDS011;4561;47.450;7.516;2023-04-24T04:02:10;5.17;;;2.33;;
9052;SDS011;4561;47.450;7.516;2023-04-24T04:05:30;2.10;;;1.70;;
9052;SDS011;4561;47.450;7.516;2023-04-24T04:08:51;2.67;;;2.47;;
9052;SDS011;4561;47.450;7.516;2023-04-24T04:12:13;3.40;;;2.17;;
9052;SDS011;4561;47.450;7.516;2023-04-24T04:15:36;3.83;;;2.20;;
9052;SDS011;4561;47.450;7.516;2023-04-24T04:18:56;2.63;;;2.17;;
9052;SDS011;4561;47.450;7.516;2023-04-24T04:22:17;2.47;;;2.27;;
9052;SDS011;4561;47.450;7.516;2023-04-24T04:25:37;3.53;;;3.03;;
9052;SDS011;4561;47.450;7.516;2023-04-24T04:28:58;3.70;;;2.23;;
9052;SDS011;4561;47.450;7.516;2023-04-24T04:32:20;2.80;;;2.30;;
9052;SDS011;4561;47.450;7.516;2023-04-24T04:35:41;4.10;;;2.40;;
9052;SDS011;4561;47.450;7.516;2023-04-24T04:39:02;2.43;;;2.00;;
9052;SDS011;4561;47.450;7.516;2023-04-24T04:42:24;4.80;;;2.10;;
9052;SDS011;4561;47.450;7.516;2023-04-24T04:45:45;4.30;;;2.27;;
9052;SDS011;4561;47.450;7.516;2023-04-24T04:49:07;3.07;;;1.87;;
9052;SDS011;4561;47.450;7.516;2023-04-24T04:52:28;2.70;;;1.60;;
9052;SDS011;4561;47.450;7.516;2023-04-24T04:55:48;3.63;;;1.83;;
9052;SDS011;4561;47.450;7.516;2023-04-24T04:59:09;2.27;;;1.60;;
9052;SDS011;4561;47.450;7.516;2023-04-24T05:02:30;2.67;;;1.73;;
9052;SDS011;4561;47.450;7.516;2023-04-24T05:05:51;2.60;;;1.40;;
9052;SDS011;4561;47.450;7.516;2023-04-24T05:09:11;1.93;;;1.40;;
9052;SDS011;4561;47.450;7.516;2023-04-24T05:12:32;2.67;;;1.60;;
9052;SDS011;4561;47.450;7.516;2023-04-24T05:15:52;3.10;;;1.60;;
9052;SDS011;4561;47.450;7.516;2023-04-24T05:19:13;1.77;;;1.40;;
9052;SDS011;4561;47.450;7.516;2023-04-24T05:22:35;2.77;;;1.37;;
9052;SDS011;4561;47.450;7.516;2023-04-24T05:25:56;3.63;;;1.50;;
9052;SDS011;4561;47.450;7.516;2023-04-24T05:29:16;4.03;;;1.50;;
9052;SDS011;4561;47.450;7.516;2023-04-24T05:32:39;2.47;;;1.60;;
9052;SDS011;4561;47.450;7.516;2023-04-24T05:35:59;2.73;;;1.90;;
9052;SDS011;4561;47.450;7.516;2023-04-24T05:39:20;5.60;;;1.83;;
9052;SDS011;4561;47.450;7.516;2023-04-24T05:42:42;3.43;;;1.80;;
9052;SDS011;4561;47.450;7.516;2023-04-24T05:46:02;2.70;;;1.70;;
9052;SDS011;4561;47.450;7.516;2023-04-24T05:49:23;2.77;;;1.83;;
9052;SDS011;4561;47.450;7.516;2023-04-24T05:52:43;3.13;;;1.90;;
9052;SDS011;4561;47.450;7.516;2023-04-24T05:56:07;6.03;;;2.10;;
9052;SDS011;4561;47.450;7.516;2023-04-24T05:59:29;3.87;;;2.00;;
9052;SDS011;4561;47.450;7.516;2023-04-24T06:02:50;4.17;;;1.70;;
9052;SDS011;4561;47.450;7.516;2023-04-24T06:06:12;2.57;;;1.60;;
9052;SDS011;4561;47.450;7.516;2023-04-24T06:09:33;3.60;;;1.70;;
9052;SDS011;4561;47.450;7.516;2023-04-24T06:12:55;2.57;;;1.60;;
9052;SDS011;4561;47.450;7.516;2023-04-24T06:16:22;2.83;;;1.43;;
9052;SDS011;4561;47.450;7.516;2023-04-24T06:19:42;5.30;;;1.37;;
9052;SDS011;4561;47.450;7.516;2023-04-24T06:23:05;4.60;;;1.90;;
9052;SDS011;4561;47.450;7.516;2023-04-24T06:26:26;4.37;;;1.50;;
9052;SDS011;4561;47.450;7.516;2023-04-24T06:29:49;3.67;;;1.60;;
9052;SDS011;4561;47.450;7.516;2023-04-24T06:33:14;2.00;;;1.17;;
9052;SDS011;4561;47.450;7.516;2023-04-24T06:36:34;2.47;;;1.37;;
9052;SDS011;4561;47.450;7.516;2023-04-24T06:39:55;2.93;;;1.90;;
9052;SDS011;4561;47.450;7.516;2023-04-24T06:43:15;1.93;;;1.53;;
9052;SDS011;4561;47.450;7.516;2023-04-24T06:46:36;2.70;;;1.70;;
9052;SDS011;4561;47.450;7.516;2023-04-24T06:49:56;1.30;;;1.20;;
9052;SDS011;4561;47.450;7.516;2023-04-24T06:53:17;2.93;;;1.47;;
9052;SDS011;4561;47.450;7.516;2023-04-24T06:56:37;2.13;;;1.57;;
9052;SDS011;4561;47.450;7.516;2023-04-24T06:59:57;2.53;;;1.70;;
9052;SDS011;4561;47.450;7.516;2023-04-24T07:03:18;2.37;;;1.97;;
9052;SDS011;4561;47.450;7.516;2023-04-24T07:06:38;4.10;;;2.37;;
9052;SDS011;4561;47.450;7.516;2023-04-24T07:09:59;4.93;;;2.40;;
9052;SDS011;4561;47.450;7.516;2023-04-24T07:13:19;3.53;;;2.50;;
9052;SDS011;4561;47.450;7.516;2023-04-24T07:16:39;4.83;;;3.70;;
9052;SDS011;4561;47.450;7.516;2023-04-24T07:20:00;5.43;;;2.83;;
9052;SDS011;4561;47.450;7.516;2023-04-24T07:23:21;4.03;;;2.10;;
9052;SDS011;4561;47.450;7.516;2023-04-24T07:26:41;5.47;;;2.57;;
9052;SDS011;4561;47.450;7.516;2023-04-24T07:30:02;3.00;;;1.80;;
9052;SDS011;4561;47.450;7.516;2023-04-24T07:33:23;3.90;;;1.97;;
9052;SDS011;4561;47.450;7.516;2023-04-24T07:36:44;3.77;;;2.10;;
9052;SDS011;4561;47.450;7.516;2023-04-24T07:40:05;3.07;;;2.00;;
9052;SDS011;4561;47.450;7.516;2023-04-24T07:43:25;3.80;;;2.07;;
9052;SDS011;4561;47.450;7.516;2023-04-24T07:46:48;7.13;;;3.80;;
9052;SDS011;4561;47.450;7.516;2023-04-24T07:50:09;4.00;;;2.03;;
9052;SDS011;4561;47.450;7.516;2023-04-24T07:53:32;4.57;;;2.27;;
9052;SDS011;4561;47.450;7.516;2023-04-24T07:56:52;3.60;;;1.90;;
9052;SDS011;4561;47.450;7.516;2023-04-24T08:00:13;5.17;;;2.07;;
9052;SDS011;4561;47.450;7.516;2023-04-24T08:03:34;3.37;;;1.80;;
9052;SDS011;4561;47.450;7.516;2023-04-24T08:06:54;3.00;;;1.83;;
9052;SDS011;4561;47.450;7.516;2023-04-24T08:10:15;5.43;;;2.10;;
9052;SDS011;4561;47.450;7.516;2023-04-24T08:13:35;4.53;;;1.93;;
9052;SDS011;4561;47.450;7.516;2023-04-24T08:16:57;6.07;;;1.90;;
9052;SDS011;4561;47.450;7.516;2023-04-24T08:20:22;3.97;;;2.07;;
9052;SDS011;4561;47.450;7.516;2023-04-24T08:23:43;3.73;;;1.83;;
9052;SDS011;4561;47.450;7.516;2023-04-24T08:27:03;3.87;;;1.90;;
9052;SDS011;4561;47.450;7.516;2023-04-24T08:30:24;3.30;;;1.83;;
9052;SDS011;4561;47.450;7.516;2023-04-24T08:33:44;4.47;;;1.93;;
9052;SDS011;4561;47.450;7.516;2023-04-24T08:37:05;2.97;;;2.07;;
9052;SDS011;4561;47.450;7.516;2023-04-24T08:40:29;3.17;;;2.10;;
9052;SDS011;4561;47.450;7.516;2023-04-24T08:43:50;3.40;;;2.20;;
9052;SDS011;4561;47.450;7.516;2023-04-24T08:47:13;3.90;;;1.77;;
9052;SDS011;4561;47.450;7.516;2023-04-24T08:50:35;4.23;;;2.00;;
9052;SDS011;4561;47.450;7.516;2023-04-24T08:53:55;3.13;;;1.93;;
9052;SDS011;4561;47.450;7.516;2023-04-24T08:57:17;3.73;;;2.30;;
9052;SDS011;4561;47.450;7.516;2023-04-24T09:00:38;3.03;;;1.60;;
9052;SDS011;4561;47.450;7.516;2023-04-24T09:04:01;4.10;;;2.00;;
9052;SDS011;4561;47.450;7.516;2023-04-24T09:07:25;3.03;;;1.90;;
9052;SDS011;4561;47.450;7.516;2023-04-24T09:10:47;3.07;;;2.07;;
9052;SDS011;4561;47.450;7.516;2023-04-24T09:14:09;4.33;;;1.90;;
9052;SDS011;4561;47.450;7.516;2023-04-24T09:17:33;2.90;;;1.80;;
9052;SDS011;4561;47.450;7.516;2023-04-24T09:20:59;4.27;;;2.03;;
9052;SDS011;4561;47.450;7.516;2023-04-24T09:24:23;5.13;;;2.13;;
9052;SDS011;4561;47.450;7.516;2023-04-24T09:27:44;4.10;;;2.40;;
9052;SDS011;4561;47.450;7.516;2023-04-24T09:34:26;2.60;;;1.80;;
9052;SDS011;4561;47.450;7.516;2023-04-24T09:37:49;7.97;;;2.40;;
9052;SDS011;4561;47.450;7.516;2023-04-24T09:41:13;4.47;;;2.40;;
9052;SDS011;4561;47.450;7.516;2023-04-24T09:44:34;4.10;;;2.40;;
9052;SDS011;4561;47.450;7.516;2023-04-24T09:47:54;2.85;;;1.90;;
9052;SDS011;4561;47.450;7.516;2023-04-24T09:51:15;4.47;;;2.30;;
9052;SDS011;4561;47.450;7.516;2023-04-24T09:54:36;4.18;;;2.53;;
9052;SDS011;4561;47.450;7.516;2023-04-24T09:58:00;2.55;;;1.80;;
9052;SDS011;4561;47.450;7.516;2023-04-24T10:01:33;2.42;;;1.70;;
9052;SDS011;4561;47.450;7.516;2023-04-24T10:04:56;6.07;;;2.45;;
9052;SDS011;4561;47.450;7.516;2023-04-24T10:08:18;7.25;;;2.35;;
9052;SDS011;4561;47.450;7.516;2023-04-24T10:11:43;2.58;;;1.98;;
9052;SDS011;4561;47.450;7.516;2023-04-24T10:15:06;7.93;;;2.10;;
9052;SDS011;4561;47.450;7.516;2023-04-24T10:18:29;3.20;;;1.63;;
9052;SDS011;4561;47.450;7.516;2023-04-24T10:21:49;3.20;;;2.05;;
9052;SDS011;4561;47.450;7.516;2023-04-24T10:25:20;4.33;;;1.70;;
9052;SDS011;4561;47.450;7.516;2023-04-24T10:28:41;2.73;;;1.87;;
9052;SDS011;4561;47.450;7.516;2023-04-24T10:32:03;2.80;;;1.80;;
9052;SDS011;4561;47.450;7.516;2023-04-24T10:35:23;2.77;;;2.10;;
9052;SDS011;4561;47.450;7.516;2023-04-24T10:38:46;2.23;;;1.60;;
9052;SDS011;4561;47.450;7.516;2023-04-24T10:42:15;3.13;;;2.10;;
9052;SDS011;4561;47.450;7.516;2023-04-24T10:45:35;3.13;;;2.00;;
9052;SDS011;4561;47.450;7.516;2023-04-24T10:48:56;4.63;;;2.17;;
9052;SDS011;4561;47.450;7.516;2023-04-24T10:52:18;6.13;;;2.20;;
9052;SDS011;4561;47.450;7.516;2023-04-24T10:55:39;3.17;;;1.90;;
9052;SDS011;4561;47.450;7.516;2023-04-24T10:59:01;2.90;;;1.70;;
9052;SDS011;4561;47.450;7.516;2023-04-24T11:02:35;3.10;;;1.90;;
9052;SDS011;4561;47.450;7.516;2023-04-24T11:06:00;3.63;;;1.90;;
9052;SDS011;4561;47.450;7.516;2023-04-24T11:09:26;1.97;;;1.37;;
9052;SDS011;4561;47.450;7.516;2023-04-24T11:12:47;4.20;;;2.30;;
9052;SDS011;4561;47.450;7.516;2023-04-24T11:16:15;2.47;;;1.80;;
9052;SDS011;4561;47.450;7.516;2023-04-24T11:19:40;4.73;;;1.80;;
9052;SDS011;4561;47.450;7.516;2023-04-24T11:23:03;2.60;;;1.70;;
9052;SDS011;4561;47.450;7.516;2023-04-24T11:26:24;3.17;;;1.83;;
9052;SDS011;4561;47.450;7.516;2023-04-24T11:33:19;2.87;;;1.43;;
9052;SDS011;4561;47.450;7.516;2023-04-24T11:36:42;1.97;;;1.60;;
9052;SDS011;4561;47.450;7.516;2023-04-24T11:40:05;3.27;;;1.67;;
9052;SDS011;4561;47.450;7.516;2023-04-24T11:43:28;5.80;;;1.50;;
9052;SDS011;4561;47.450;7.516;2023-04-24T11:46:48;4.33;;;1.80;;
9052;SDS011;4561;47.450;7.516;2023-04-24T11:50:10;3.40;;;1.70;;
9052;SDS011;4561;47.450;7.516;2023-04-24T11:53:31;2.17;;;1.50;;
9052;SDS011;4561;47.450;7.516;2023-04-24T11:56:51;2.47;;;1.60;;
9052;SDS011;4561;47.450;7.516;2023-04-24T12:00:19;3.07;;;1.23;;
9052;SDS011;4561;47.450;7.516;2023-04-24T12:03:40;1.90;;;1.20;;
9052;SDS011;4561;47.450;7.516;2023-04-24T12:07:04;3.00;;;1.30;;
9052;SDS011;4561;47.450;7.516;2023-04-24T12:10:29;1.30;;;1.20;;
9052;SDS011;4561;47.450;7.516;2023-04-24T12:13:50;2.60;;;1.27;;
9052;SDS011;4561;47.450;7.516;2023-04-24T12:17:10;2.70;;;1.50;;
9052;SDS011;4561;47.450;7.516;2023-04-24T12:20:31;3.30;;;1.77;;
9052;SDS011;4561;47.450;7.516;2023-04-24T12:23:54;2.77;;;1.90;;
9052;SDS011;4561;47.450;7.516;2023-04-24T12:27:19;2.23;;;1.50;;
9052;SDS011;4561;47.450;7.516;2023-04-24T12:30:43;1.57;;;1.30;;
9052;SDS011;4561;47.450;7.516;2023-04-24T12:34:16;1.87;;;1.70;;
9052;SDS011;4561;47.450;7.516;2023-04-24T12:37:45;2.83;;;1.70;;
9052;SDS011;4561;47.450;7.516;2023-04-24T12:41:10;5.23;;;2.00;;
9052;SDS011;4561;47.450;7.516;2023-04-24T12:44:32;2.40;;;1.93;;
9052;SDS011;4561;47.450;7.516;2023-04-24T12:47:54;3.27;;;1.97;;
9052;SDS011;4561;47.450;7.516;2023-04-24T12:51:15;4.50;;;2.30;;
9052;SDS011;4561;47.450;7.516;2023-04-24T12:54:35;5.67;;;2.20;;
9052;SDS011;4561;47.450;7.516;2023-04-24T12:57:57;6.80;;;2.10;;
9052;SDS011;4561;47.450;7.516;2023-04-24T13:01:20;2.97;;;2.00;;
9052;SDS011;4561;47.450;7.516;2023-04-24T13:04:46;2.30;;;1.80;;
9052;SDS011;4561;47.450;7.516;2023-04-24T13:08:07;4.53;;;1.70;;
9052;SDS011;4561;47.450;7.516;2023-04-24T13:11:27;2.47;;;1.47;;
9052;SDS011;4561;47.450;7.516;2023-04-24T13:14:50;2.17;;;1.50;;
9052;SDS011;4561;47.450;7.516;2023-04-24T13:18:11;2.97;;;1.60;;
9052;SDS011;4561;47.450;7.516;2023-04-24T13:21:31;2.43;;;1.63;;
9052;SDS011;4561;47.450;7.516;2023-04-24T13:24:52;2.50;;;1.60;;
9052;SDS011;4561;47.450;7.516;2023-04-24T13:28:12;1.90;;;1.80;;
9052;SDS011;4561;47.450;7.516;2023-04-24T13:31:33;2.20;;;1.73;;
9052;SDS011;4561;47.450;7.516;2023-04-24T13:34:53;5.53;;;1.90;;
9052;SDS011;4561;47.450;7.516;2023-04-24T13:38:13;4.60;;;1.90;;
9052;SDS011;4561;47.450;7.516;2023-04-24T13:41:34;3.63;;;1.97;;
9052;SDS011;4561;47.450;7.516;2023-04-24T13:44:55;1.80;;;1.70;;
9052;SDS011;4561;47.450;7.516;2023-04-24T13:48:15;3.73;;;1.83;;
9052;SDS011;4561;47.450;7.516;2023-04-24T13:51:38;4.83;;;2.00;;
9052;SDS011;4561;47.450;7.516;2023-04-24T13:54:58;4.30;;;1.77;;
9052;SDS011;4561;47.450;7.516;2023-04-24T13:58:19;4.93;;;2.23;;
9052;SDS011;4561;47.450;7.516;2023-04-24T14:01:39;1.93;;;1.60;;
9052;SDS011;4561;47.450;7.516;2023-04-24T14:05:00;2.30;;;1.97;;
9052;SDS011;4561;47.450;7.516;2023-04-24T14:08:23;2.70;;;1.73;;
9052;SDS011;4561;47.450;7.516;2023-04-24T14:11:43;2.80;;;1.63;;
9052;SDS011;4561;47.450;7.516;2023-04-24T14:15:04;3.00;;;1.80;;
9052;SDS011;4561;47.450;7.516;2023-04-24T14:18:27;3.13;;;2.00;;
9052;SDS011;4561;47.450;7.516;2023-04-24T14:21:50;2.43;;;1.73;;
9052;SDS011;4561;47.450;7.516;2023-04-24T14:25:13;3.70;;;2.13;;
9052;SDS011;4561;47.450;7.516;2023-04-24T14:28:35;4.40;;;1.93;;
9052;SDS011;4561;47.450;7.516;2023-04-24T14:31:56;4.00;;;1.70;;
9052;SDS011;4561;47.450;7.516;2023-04-24T14:35:16;3.53;;;2.07;;
9052;SDS011;4561;47.450;7.516;2023-04-24T14:38:37;2.73;;;1.50;;
9052;SDS011;4561;47.450;7.516;2023-04-24T14:41:57;2.93;;;1.80;;
9052;SDS011;4561;47.450;7.516;2023-04-24T14:45:21;3.20;;;1.93;;
9052;SDS011;4561;47.450;7.516;2023-04-24T14:48:41;5.43;;;2.50;;
9052;SDS011;4561;47.450;7.516;2023-04-24T14:52:02;3.47;;;1.87;;
9052;SDS011;4561;47.450;7.516;2023-04-24T14:55:23;3.43;;;2.20;;
9052;SDS011;4561;47.450;7.516;2023-04-24T14:58:44;4.03;;;1.80;;
9052;SDS011;4561;47.450;7.516;2023-04-24T15:02:05;6.03;;;2.03;;
9052;SDS011;4561;47.450;7.516;2023-04-24T15:05:28;6.83;;;2.20;;
9052;SDS011;4561;47.450;7.516;2023-04-24T15:08:50;2.87;;;1.80;;
9052;SDS011;4561;47.450;7.516;2023-04-24T15:12:10;3.13;;;2.10;;
9052;SDS011;4561;47.450;7.516;2023-04-24T15:15:32;4.57;;;2.10;;
9052;SDS011;4561;47.450;7.516;2023-04-24T15:18:52;5.67;;;1.90;;
9052;SDS011;4561;47.450;7.516;2023-04-24T15:22:13;5.37;;;2.00;;
9052;SDS011;4561;47.450;7.516;2023-04-24T15:25:33;3.53;;;2.10;;
9052;SDS011;4561;47.450;7.516;2023-04-24T15:28:54;2.87;;;1.70;;
9052;SDS011;4561;47.450;7.516;2023-04-24T15:32:17;3.13;;;1.90;;
9052;SDS011;4561;47.450;7.516;2023-04-24T15:35:37;3.57;;;1.90;;
9052;SDS011;4561;47.450;7.516;2023-04-24T15:38:58;2.67;;;1.57;;
9052;SDS011;4561;47.450;7.516;2023-04-24T15:42:18;3.03;;;1.80;;
9052;SDS011;4561;47.450;7.516;2023-04-24T15:45:41;3.37;;;1.97;;
9052;SDS011;4561;47.450;7.516;2023-04-24T15:49:03;2.70;;;1.60;;
9052;SDS011;4561;47.450;7.516;2023-04-24T15:52:24;4.47;;;2.00;;
9052;SDS011;4561;47.450;7.516;2023-04-24T15:55:45;1.97;;;1.50;;
9052;SDS011;4561;47.450;7.516;2023-04-24T15:59:05;3.03;;;1.83;;
9052;SDS011;4561;47.450;7.516;2023-04-24T16:02:28;4.73;;;1.67;;
9052;SDS011;4561;47.450;7.516;2023-04-24T16:05:48;2.57;;;1.70;;
9052;SDS011;4561;47.450;7.516;2023-04-24T16:09:09;2.90;;;1.77;;
9052;SDS011;4561;47.450;7.516;2023-04-24T16:12:29;1.60;;;1.50;;
9052;SDS011;4561;47.450;7.516;2023-04-24T16:15:50;3.83;;;2.20;;
9052;SDS011;4561;47.450;7.516;2023-04-24T16:19:10;3.17;;;2.00;;
9052;SDS011;4561;47.450;7.516;2023-04-24T16:22:31;3.30;;;1.73;;
9052;SDS011;4561;47.450;7.516;2023-04-24T16:25:53;2.83;;;1.90;;
9052;SDS011;4561;47.450;7.516;2023-04-24T16:29:14;2.97;;;1.73;;
9052;SDS011;4561;47.450;7.516;2023-04-24T16:32:34;4.27;;;2.13;;
9052;SDS011;4561;47.450;7.516;2023-04-24T16:35:55;4.43;;;2.17;;
9052;SDS011;4561;47.450;7.516;2023-04-24T16:39:15;3.30;;;1.90;;
9052;SDS011;4561;47.450;7.516;2023-04-24T16:42:36;3.23;;;2.00;;
9052;SDS011;4561;47.450;7.516;2023-04-24T16:45:57;5.27;;;2.60;;
9052;SDS011;4561;47.450;7.516;2023-04-24T16:49:19;6.67;;;2.40;;
9052;SDS011;4561;47.450;7.516;2023-04-24T16:52:43;3.93;;;1.80;;
9052;SDS011;4561;47.450;7.516;2023-04-24T16:56:06;2.20;;;1.90;;
9052;SDS011;4561;47.450;7.516;2023-04-24T16:59:29;3.97;;;2.00;;
9052;SDS011;4561;47.450;7.516;2023-04-24T17:02:52;2.73;;;1.90;;
9052;SDS011;4561;47.450;7.516;2023-04-24T17:06:13;3.67;;;2.13;;
9052;SDS011;4561;47.450;7.516;2023-04-24T17:09:36;3.13;;;2.00;;
9052;SDS011;4561;47.450;7.516;2023-04-24T17:12:57;3.40;;;2.07;;
9052;SDS011;4561;47.450;7.516;2023-04-24T17:16:18;3.67;;;2.10;;
9052;SDS011;4561;47.450;7.516;2023-04-24T17:19:39;3.93;;;2.10;;
9052;SDS011;4561;47.450;7.516;2023-04-24T17:22:59;2.77;;;1.70;;
9052;SDS011;4561;47.450;7.516;2023-04-24T17:26:22;4.90;;;1.87;;
9052;SDS011;4561;47.450;7.516;2023-04-24T17:29:44;3.20;;;2.00;;
9052;SDS011;4561;47.450;7.516;2023-04-24T17:33:05;2.30;;;1.80;;
9052;SDS011;4561;47.450;7.516;2023-04-24T17:36:28;3.10;;;2.03;;
9052;SDS011;4561;47.450;7.516;2023-04-24T17:39:51;2.67;;;1.40;;
9052;SDS011;4561;47.450;7.516;2023-04-24T17:43:12;6.23;;;2.67;;
9052;SDS011;4561;47.450;7.516;2023-04-24T17:46:37;4.87;;;2.10;;
9052;SDS011;4561;47.450;7.516;2023-04-24T17:49:57;5.60;;;1.80;;
9052;SDS011;4561;47.450;7.516;2023-04-24T17:53:18;4.70;;;2.37;;
9052;SDS011;4561;47.450;7.516;2023-04-24T17:56:38;3.27;;;1.63;;
9052;SDS011;4561;47.450;7.516;2023-04-24T17:59:58;4.17;;;1.83;;
9052;SDS011;4561;47.450;7.516;2023-04-24T18:03:19;4.97;;;1.97;;
9052;SDS011;4561;47.450;7.516;2023-04-24T18:06:39;3.30;;;1.73;;
9052;SDS011;4561;47.450;7.516;2023-04-24T18:10:00;3.67;;;1.70;;
9052;SDS011;4561;47.450;7.516;2023-04-24T18:13:20;2.20;;;1.90;;
9052;SDS011;4561;47.450;7.516;2023-04-24T18:16:41;4.13;;;2.07;;
9052;SDS011;4561;47.450;7.516;2023-04-24T18:20:01;2.90;;;1.97;;
9052;SDS011;4561;47.450;7.516;2023-04-24T18:23:24;4.03;;;2.03;;
9052;SDS011;4561;47.450;7.516;2023-04-24T18:26:45;3.63;;;2.00;;
9052;SDS011;4561;47.450;7.516;2023-04-24T18:30:08;3.13;;;2.07;;
9052;SDS011;4561;47.450;7.516;2023-04-24T18:33:30;4.80;;;2.40;;
9052;SDS011;4561;47.450;7.516;2023-04-24T18:36:50;5.70;;;2.20;;
9052;SDS011;4561;47.450;7.516;2023-04-24T18:40:11;3.03;;;2.10;;
9052;SDS011;4561;47.450;7.516;2023-04-24T18:43:32;4.60;;;2.57;;
9052;SDS011;4561;47.450;7.516;2023-04-24T18:46:53;5.50;;;2.30;;
9052;SDS011;4561;47.450;7.516;2023-04-24T18:50:13;3.17;;;2.10;;
9052;SDS011;4561;47.450;7.516;2023-04-24T18:53:34;5.37;;;2.17;;
9052;SDS011;4561;47.450;7.516;2023-04-24T18:56:56;4.07;;;2.10;;
9052;SDS011;4561;47.450;7.516;2023-04-24T19:00:17;3.60;;;2.40;;
9052;SDS011;4561;47.450;7.516;2023-04-24T19:03:37;2.20;;;1.80;;
9052;SDS011;4561;47.450;7.516;2023-04-24T19:06:58;3.63;;;2.30;;
9052;SDS011;4561;47.450;7.516;2023-04-24T19:10:18;8.47;;;2.80;;
9052;SDS011;4561;47.450;7.516;2023-04-24T19:13:42;3.53;;;2.40;;
9052;SDS011;4561;47.450;7.516;2023-04-24T19:17:02;3.53;;;2.10;;
9052;SDS011;4561;47.450;7.516;2023-04-24T19:20:24;5.63;;;3.30;;
9052;SDS011;4561;47.450;7.516;2023-04-24T19:23:45;5.00;;;2.50;;
9052;SDS011;4561;47.450;7.516;2023-04-24T19:27:09;3.40;;;2.13;;
9052;SDS011;4561;47.450;7.516;2023-04-24T19:30:29;4.43;;;2.63;;
9052;SDS011;4561;47.450;7.516;2023-04-24T19:33:50;4.10;;;2.47;;
9052;SDS011;4561;47.450;7.516;2023-04-24T19:37:13;2.50;;;2.00;;
9052;SDS011;4561;47.450;7.516;2023-04-24T19:40:33;5.77;;;2.40;;
9052;SDS011;4561;47.450;7.516;2023-04-24T19:43:56;4.70;;;2.40;;
9052;SDS011;4561;47.450;7.516;2023-04-24T19:47:17;3.93;;;2.20;;
9052;SDS011;4561;47.450;7.516;2023-04-24T19:50:38;4.30;;;2.00;;
9052;SDS011;4561;47.450;7.516;2023-04-24T19:53:58;2.87;;;2.07;;
9052;SDS011;4561;47.450;7.516;2023-04-24T19:57:21;5.00;;;2.47;;
9052;SDS011;4561;47.450;7.516;2023-04-24T20:00:42;6.63;;;2.90;;
9052;SDS011;4561;47.450;7.516;2023-04-24T20:04:02;3.10;;;2.53;;
9052;SDS011;4561;47.450;7.516;2023-04-24T20:07:26;3.90;;;2.47;;
9052;SDS011;4561;47.450;7.516;2023-04-24T20:10:47;4.43;;;2.53;;
9052;SDS011;4561;47.450;7.516;2023-04-24T20:14:07;5.53;;;2.33;;
9052;SDS011;4561;47.450;7.516;2023-04-24T20:17:27;5.37;;;2.73;;
9052;SDS011;4561;47.450;7.516;2023-04-24T20:20:48;4.73;;;2.40;;
9052;SDS011;4561;47.450;7.516;2023-04-24T20:24:08;5.20;;;2.53;;
9052;SDS011;4561;47.450;7.516;2023-04-24T20:27:29;6.03;;;2.87;;
9052;SDS011;4561;47.450;7.516;2023-04-24T20:30:50;3.57;;;2.10;;
9052;SDS011;4561;47.450;7.516;2023-04-24T20:34:13;3.03;;;2.17;;
9052;SDS011;4561;47.450;7.516;2023-04-24T20:37:33;4.63;;;2.27;;
9052;SDS011;4561;47.450;7.516;2023-04-24T20:40:55;3.40;;;2.30;;
9052;SDS011;4561;47.450;7.516;2023-04-24T20:44:15;4.03;;;2.47;;
9052;SDS011;4561;47.450;7.516;2023-04-24T20:47:36;4.57;;;2.50;;
9052;SDS011;4561;47.450;7.516;2023-04-24T20:50:56;6.03;;;2.37;;
9052;SDS011;4561;47.450;7.516;2023-04-24T20:54:17;4.43;;;2.63;;
9052;SDS011;4561;47.450;7.516;2023-04-24T20:57:37;6.03;;;2.60;;